Time;durP1;ratioP1;P1;durP2;ratioP2;P2;SDS_P1;SDS_P2;PMS_P1;PMS_P2;Temp;Humidity;BMP_temperature;BMP_pressure;BME280_temperature;BME280_humidity;BME280_pressure;Samples;Min_cycle;Max_cycle;Signal;HPM_P1;HPM_P2
2021/11/17 02:28:09;;;;;;;67.50;34.20;;;;;;;0.14;66.95;99576.98;103015;1320;107901;-70
2021/11/17 02:31:17;;;;;;;90.20;34.20;;;;;;;0.10;66.86;99576.02;102945;1325;97924;-70
2021/11/17 02:34:19;;;;;;;66.30;30.00;;;;;;;0.06;66.78;99575.23;102914;1323;97903;-70
2021/11/17 02:37:06;;;;;;;124.30;32.50;;;;;;;0.04;67.10;99577.36;102842;1320;111509;-70
2021/11/17 02:40:01;;;;;;;76.10;30.80;;;;;;;0.04;67.07;99575.96;103095;1320;97904;-70
2021/11/17 02:42:43;;;;;;;66.80;34.80;;;;;;;0.06;67.33;99569.47;102710;1320;107950;-71
2021/11/17 02:45:21;;;;;;;60.70;32.80;;;;;;;0.09;67.30;99564.70;102990;1319;133255;-70
2021/11/17 02:47:49;;;;;;;57.90;32.30;;;;;;;0.10;67.22;99563.47;102921;1325;97878;-71
2021/11/17 02:50:39;;;;;;;64.20;34.80;;;;;;;0.11;67.44;99561.34;102915;1325;110486;-72
2021/11/17 02:53:09;;;;;;;63.80;32.40;;;;;;;0.14;67.30;99562.00;102972;1320;98042;-70
2021/11/17 02:55:59;;;;;;;71.10;34.70;;;;;;;0.15;67.41;99565.11;103019;1323;107698;-70
2021/11/17 02:58:45;;;;;;;59.10;31.80;;;;;;;0.17;67.41;99562.63;102969;1325;97997;-70
2021/11/17 03:01:16;;;;;;;63.50;31.70;;;;;;;0.18;67.49;99562.77;102894;1320;97859;-70
2021/11/17 03:04:15;;;;;;;82.40;32.90;;;;;;;0.19;67.49;99560.66;103068;1319;111517;-70
2021/11/17 03:07:08;;;;;;;60.90;30.50;;;;;;;0.17;67.37;99561.41;103021;1320;98982;-71
2021/11/17 03:09:41;;;;;;;59.20;30.10;;;;;;;0.16;67.58;99563.16;103106;1319;107770;-69
2021/11/17 03:12:28;;;;;;;;;;;;;;;0.18;67.44;99562.42;103116;1323;98011;-70
2021/11/17 03:15:25;;;;;;;57.60;27.60;;;;;;;0.14;67.65;99562.84;103114;1317;97876;-70
2021/11/17 03:18:09;;;;;;;75.20;29.60;;;;;;;0.15;67.65;99563.55;103107;1321;110519;-69
2021/11/17 03:20:47;;;;;;;53.00;28.10;;;;;;;0.16;67.68;99568.94;103110;1325;97913;-71
2021/11/17 03:23:27;;;;;;;69.40;30.30;;;;;;;0.16;67.49;99567.70;103095;1317;108647;-71
2021/11/17 03:26:22;;;;;;;112.30;28.20;;;;;;;0.14;67.50;99568.60;103057;1322;98012;-70
2021/11/17 03:29:05;;;;;;;62.50;24.30;;;;;;;0.11;67.47;99567.98;103096;1323;97898;-70
2021/11/17 03:31:44;;;;;;;55.80;26.60;;;;;;;0.09;67.67;99563.32;103130;1323;111487;-71
2021/11/17 03:34:15;;;;;;;63.10;27.00;;;;;;;0.12;67.79;99567.98;103122;1322;98040;-70
2021/11/17 03:36:52;;;;;;;60.90;27.50;;;;;;;0.13;67.56;99565.33;103051;1319;107892;-70
2021/11/17 03:39:45;;;;;;;59.30;28.50;;;;;;;0.12;67.64;99563.25;103080;1317;98010;-70
2021/11/17 03:42:19;;;;;;;60.40;27.30;;;;;;;0.14;67.85;99563.56;102870;1320;98110;-71
2021/11/17 03:45:06;;;;;;;97.10;29.00;;;;;;;0.14;67.79;99564.59;102968;1322;111568;-69
2021/11/17 03:47:34;;;;;;;82.10;27.70;;;;;;;0.15;67.88;99559.70;103044;1319;98005;-69
2021/11/17 03:50:23;;;;;;;59.00;27.40;;;;;;;0.14;67.86;99559.02;102944;1319;107741;-70
2021/11/17 03:53:03;;;;;;;59.80;26.50;;;;;;;0.13;67.93;99559.20;102950;1319;98075;-70
2021/11/17 03:55:39;;;;;;;76.30;26.30;;;;;;;0.14;67.89;99563.39;102984;1319;96018;-69
2021/11/17 03:58:14;;;;;;;48.90;25.30;;;;;;;0.10;67.76;99558.75;103100;1317;110076;-70
2021/11/17 04:01:20;;;;;;;57.40;24.30;;;;;;;0.09;67.93;99558.95;103080;1317;96110;-69
2021/11/17 04:04:17;;;;;;;58.30;25.70;;;;;;;0.09;67.91;99555.47;102670;1325;106865;-70
2021/11/17 04:06:48;;;;;;;47.40;23.40;;;;;;;0.06;67.89;99561.80;103008;1319;97995;-69
2021/11/17 04:09:36;;;;;;;66.50;25.30;;;;;;;0.04;67.92;99563.75;103098;1323;98023;-69
2021/11/17 04:12:14;;;;;;;63.20;26.90;;;;;;;0.04;68.02;99560.45;102723;1324;111622;-70
2021/11/17 04:15:07;;;;;;;65.80;26.10;;;;;;;0.05;67.93;99560.27;102979;1323;95371;-69
2021/11/17 04:17:54;;;;;;;52.50;26.80;;;;;;;0.06;68.08;99560.58;102930;1319;108504;-70
2021/11/17 04:20:29;;;;;;;53.30;26.50;;;;;;;0.08;68.12;99559.14;103061;1322;95313;-69
2021/11/17 04:23:20;;;;;;;61.10;27.70;;;;;;;0.10;68.11;99558.59;103133;1316;97900;-69
2021/11/17 04:25:57;;;;;;;45.00;25.50;;;;;;;0.12;68.17;99552.27;103080;1324;112634;-69
2021/11/17 04:28:49;;;;;;;72.40;24.10;;;;;;;0.10;67.98;99545.51;102947;1323;98004;-69
2021/11/17 04:31:35;;;;;;;75.00;24.50;;;;;;;-0.01;67.88;99546.44;102840;1321;108513;-69
2021/11/17 04:34:14;;;;;;;64.70;22.50;;;;;;;-0.06;67.95;99547.23;102859;1319;98741;-69
2021/11/17 04:36:58;;;;;;;60.00;23.60;;;;;;;-0.10;67.89;99546.11;103001;1317;97922;-70
2021/11/17 04:39:33;;;;;;;65.40;24.30;;;;;;;-0.14;68.01;99548.29;102890;1317;112191;-70
2021/11/17 04:42:07;;;;;;;69.00;24.70;;;;;;;-0.17;68.08;99547.98;103231;1316;97959;-68
2021/11/17 04:44:41;;;;;;;99.70;25.40;;;;;;;-0.17;68.17;99545.89;103175;1316;108489;-69
2021/11/17 04:47:15;;;;;;;57.20;26.00;;;;;;;-0.18;68.19;99547.14;103100;1316;96413;-69
2021/11/17 04:50:05;;;;;;;61.40;24.60;;;;;;;-0.19;68.20;99544.70;103161;1316;97863;-71
2021/11/17 04:52:41;;;;;;;58.90;24.80;;;;;;;-0.19;68.08;99548.04;102925;1318;112120;-71
2021/11/17 04:55:51;;;;;;;56.60;25.60;;;;;;;-0.19;68.41;99545.95;103040;1323;98933;-69
2021/11/17 04:58:28;;;;;;;59.60;24.90;;;;;;;-0.19;68.47;99542.11;102470;1324;108445;-69
2021/11/17 05:01:14;;;;;;;66.60;26.20;;;;;;;-0.17;68.46;99541.88;102848;1322;97980;-70
2021/11/17 05:04:01;;;;;;;79.40;27.00;;;;;;;-0.14;68.40;99546.71;102836;1320;96516;-71
2021/11/17 05:06:47;;;;;;;88.60;26.10;;;;;;;-0.15;68.49;99543.94;103046;1322;111490;-70
2021/11/17 05:09:24;;;;;;;83.20;24.40;;;;;;;-0.18;68.17;99541.56;103016;1317;95235;-69
2021/11/17 05:12:34;;;;;;;83.80;23.90;;;;;;;-0.32;67.89;99547.41;102852;1321;107872;-70
2021/11/17 05:15:23;;;;;;;58.60;26.20;;;;;;;-0.41;68.30;99546.56;102971;1322;96470;-69
2021/11/17 05:18:00;;;;;;;60.20;24.40;;;;;;;-0.37;68.48;99548.40;103060;1316;98947;-70
2021/11/17 05:20:34;;;;;;;64.90;25.40;;;;;;;-0.35;68.41;99545.05;103056;1319;111498;-70
2021/11/17 05:23:02;;;;;;;47.70;24.10;;;;;;;-0.32;68.61;99545.52;103057;1317;97994;-71
2021/11/17 05:25:37;;;;;;;55.30;25.20;;;;;;;-0.29;68.70;99547.72;103015;1317;107488;-69
2021/11/17 05:28:14;;;;;;;61.30;24.90;;;;;;;-0.26;68.48;99549.07;103108;1316;98023;-68
2021/11/17 05:31:01;;;;;;;49.60;24.40;;;;;;;-0.28;68.65;99550.48;103082;1322;95226;-67
2021/11/17 05:34:13;;;;;;;75.50;26.60;;;;;;;-0.27;68.75;99553.95;103018;1322;112298;-68
2021/11/17 05:36:55;;;;;;;44.90;24.30;;;;;;;-0.25;68.68;99550.60;102578;1323;97985;-69
2021/11/17 05:39:38;;;;;;;63.90;24.10;;;;;;;-0.23;68.74;99554.39;103052;1320;108470;-71
2021/11/17 05:42:14;;;;;;;53.50;24.80;;;;;;;-0.23;68.66;99552.65;103077;1322;97856;-69
2021/11/17 05:45:17;;;;;;;65.00;26.10;;;;;;;-0.22;68.74;99553.15;103104;1317;97900;-70
2021/11/17 05:47:52;;;;;;;54.70;25.90;;;;;;;-0.24;68.73;99552.51;102828;1325;112173;-69
2021/11/17 05:50:33;;;;;;;51.70;24.30;;;;;;;-0.24;68.71;99551.63;102911;1323;98066;-68
2021/11/17 05:53:16;;;;;;;56.30;25.60;;;;;;;-0.24;68.70;99554.60;102938;1322;108505;-68
2021/11/17 05:56:16;;;;;;;51.90;25.30;;;;;;;-0.25;68.79;99553.05;103024;1317;96523;-68
2021/11/17 05:58:44;;;;;;;53.60;27.70;;;;;;;-0.23;68.80;99550.23;102974;1319;97959;-67
2021/11/17 06:01:40;;;;;;;51.90;23.90;;;;;;;-0.23;68.80;99550.92;102850;1319;112116;-69
2021/11/17 06:04:11;;;;;;;58.50;24.30;;;;;;;-0.25;68.78;99550.95;102887;1319;95804;-68
2021/11/17 06:06:39;;;;;;;55.60;25.50;;;;;;;-0.29;68.73;99549.30;102916;1319;108912;-69
2021/11/17 06:09:08;;;;;;;55.20;24.60;;;;;;;-0.29;68.88;99549.13;102859;1322;95320;-69
2021/11/17 06:11:52;;;;;;;65.20;25.70;;;;;;;-0.28;68.66;99545.26;102878;1321;97904;-69
2021/11/17 06:14:27;;;;;;;46.00;22.40;;;;;;;-0.30;68.69;99546.17;102894;1319;112020;-69
2021/11/17 06:17:05;;;;;;;51.10;19.80;;;;;;;-0.36;68.67;99546.80;102841;1319;97961;-68
2021/11/17 06:19:38;;;;;;;48.30;23.90;;;;;;;-0.35;68.90;99544.86;102999;1321;107826;-69
2021/11/17 06:22:09;;;;;;;46.00;23.70;;;;;;;-0.31;69.01;99547.23;103050;1317;98705;-67
2021/11/17 06:24:41;;;;;;;45.80;23.90;;;;;;;-0.27;68.95;99546.30;103089;1317;97902;-66
2021/11/17 06:27:16;;;;;;;45.40;24.20;;;;;;;-0.27;68.77;99543.86;103068;1317;111229;-69
2021/11/17 06:29:48;;;;;;;43.90;23.30;;;;;;;-0.24;68.94;99549.36;102901;1317;97901;-70
2021/11/17 06:32:18;;;;;;;44.40;21.70;;;;;;;-0.21;69.01;99546.16;102995;1319;107820;-69
2021/11/17 06:34:50;;;;;;;36.90;17.30;;;;;;;-0.23;68.60;99545.69;102900;1319;98629;-71
2021/11/17 06:37:22;;;;;;;33.50;16.70;;;;;;;-0.43;69.09;99543.45;102983;1319;98511;-68
2021/11/17 06:40:00;;;;;;;50.60;20.90;;;;;;;-0.76;69.52;99542.00;102972;1318;111507;-71
2021/11/17 06:42:34;;;;;;;65.70;22.00;;;;;;;-1.01;69.18;99543.69;103071;1320;96482;-71
2021/11/17 06:45:15;;;;;;;73.00;22.90;;;;;;;-1.12;69.71;99550.48;102991;1317;107789;-71
2021/11/17 06:47:44;;;;;;;66.40;22.60;;;;;;;-1.23;69.38;99553.28;103002;1323;98041;-70
2021/11/17 06:50:15;;;;;;;73.80;22.10;;;;;;;-1.21;69.66;99558.29;103091;1322;98758;-70
2021/11/17 06:52:43;;;;;;;47.60;23.50;;;;;;;-1.17;69.59;99559.78;103020;1318;112495;-70
2021/11/17 06:55:13;;;;;;;56.20;25.00;;;;;;;-1.11;69.58;99564.39;103015;1322;98044;-69
2021/11/17 06:57:41;;;;;;;60.80;26.70;;;;;;;-1.01;69.85;99564.23;102947;1319;107931;-69
2021/11/17 07:00:16;;;;;;;53.00;26.10;;;;;;;-0.91;69.82;99561.44;102882;1316;97992;-69
2021/11/17 07:02:45;;;;;;;53.70;24.20;;;;;;;-0.82;69.73;99562.49;102781;1319;97869;-70
2021/11/17 07:05:16;;;;;;;58.20;22.10;;;;;;;-0.82;69.59;99563.02;102828;1319;112211;-69
2021/11/17 07:07:44;;;;;;;61.60;25.50;;;;;;;-0.94;69.62;99560.61;103067;1321;97914;-70
2021/11/17 07:10:16;;;;;;;53.40;26.70;;;;;;;-1.07;69.63;99557.90;102981;1316;108478;-69
2021/11/17 07:12:45;;;;;;;58.30;28.90;;;;;;;-1.09;70.01;99561.06;103098;1319;97872;-70
2021/11/17 07:15:15;;;;;;;69.90;27.70;;;;;;;-1.02;69.62;99558.31;103002;1320;98559;-70
2021/11/17 07:17:43;;;;;;;71.00;28.30;;;;;;;-1.02;69.81;99555.70;102978;1319;113012;-70
2021/11/17 07:20:15;;;;;;;67.30;27.10;;;;;;;-1.03;69.74;99561.14;103060;1317;97053;-70
2021/11/17 07:22:45;;;;;;;83.10;27.50;;;;;;;-1.02;69.96;99557.62;102925;1319;107436;-69
2021/11/17 07:25:19;;;;;;;64.10;28.50;;;;;;;-0.97;69.77;99557.54;103019;1324;97959;-71
2021/11/17 07:27:49;;;;;;;70.70;30.50;;;;;;;-0.97;70.06;99556.48;102992;1317;97893;-69
2021/11/17 07:30:22;;;;;;;52.20;28.10;;;;;;;-0.92;69.85;99559.35;103114;1316;112108;-70
2021/11/17 07:32:51;;;;;;;55.70;30.10;;;;;;;-0.82;70.20;99557.63;103051;1319;97865;-70
2021/11/17 07:35:24;;;;;;;85.20;28.00;;;;;;;-0.71;70.26;99548.54;102905;1322;107815;-69
2021/11/17 07:38:00;;;;;;;90.30;27.60;;;;;;;-0.64;69.67;99550.34;103102;1322;97942;-70
2021/11/17 07:40:35;;;;;;;75.20;27.20;;;;;;;-0.66;69.96;99552.63;102930;1322;97986;-70
2021/11/17 07:43:09;;;;;;;83.80;26.80;;;;;;;-0.71;70.10;99557.06;102754;1319;111506;-69
2021/11/17 07:45:40;;;;;;;50.80;26.30;;;;;;;-0.78;70.14;99557.55;103033;1319;97921;-69
2021/11/17 07:48:11;;;;;;;58.40;25.60;;;;;;;-0.79;70.42;99553.02;102968;1319;107878;-69
2021/11/17 07:50:44;;;;;;;54.60;25.00;;;;;;;-0.81;70.24;99556.55;102989;1319;95326;-69
2021/11/17 07:53:22;;;;;;;51.70;22.90;;;;;;;-0.75;70.16;99551.40;103055;1319;97931;-70
2021/11/17 07:55:54;;;;;;;61.10;25.40;;;;;;;-0.71;70.26;99550.29;102985;1319;110864;-69
2021/11/17 07:58:27;;;;;;;103.20;28.80;;;;;;;-0.72;70.54;99543.85;103084;1319;97882;-71
2021/11/17 08:00:58;;;;;;;73.60;25.90;;;;;;;-0.80;70.53;99537.20;103081;1317;107949;-71
2021/11/17 08:03:33;;;;;;;78.70;25.90;;;;;;;-0.74;70.41;99540.56;103004;1319;97908;-69
2021/11/17 08:06:04;;;;;;;82.40;28.50;;;;;;;-0.65;70.63;99537.98;103086;1317;95178;-69
2021/11/17 08:08:35;;;;;;;95.90;30.90;;;;;;;-0.59;70.55;99538.90;102824;1319;112117;-72
2021/11/17 08:11:13;;;;;;;82.50;34.20;;;;;;;-0.58;70.66;99541.66;103095;1317;97936;-69
2021/11/17 08:13:44;;;;;;;83.70;30.70;;;;;;;-0.50;70.74;99536.64;102870;1319;107903;-69
2021/11/17 08:16:15;;;;;;;63.20;34.80;;;;;;;-0.38;70.89;99539.19;103011;1317;97975;-69
2021/11/17 08:18:46;;;;;;;77.10;35.80;;;;;;;-0.23;71.22;99544.63;103088;1317;97792;-70
2021/11/17 08:21:18;;;;;;;88.20;34.10;;;;;;;-0.04;71.36;99543.73;102941;1318;111417;-69
2021/11/17 08:23:46;;;;;;;74.50;35.70;;;;;;;0.10;71.07;99544.13;102961;1319;96596;-71
2021/11/17 08:26:19;;;;;;;109.70;37.90;;;;;;;0.12;70.90;99547.55;102992;1319;107900;-69
2021/11/17 08:28:47;;;;;;;113.10;36.80;;;;;;;0.08;70.90;99546.77;102818;1319;97908;-69
2021/11/17 08:31:21;;;;;;;89.50;38.40;;;;;;;0.07;70.96;99545.57;102950;1319;96648;-69
2021/11/17 08:33:49;;;;;;;79.70;34.10;;;;;;;0.11;70.83;99545.14;103006;1319;112518;-69
2021/11/17 08:36:17;;;;;;;73.70;33.60;;;;;;;0.18;70.85;99545.17;102990;1319;97863;-71
2021/11/17 08:38:50;;;;;;;69.90;34.10;;;;;;;0.23;70.95;99541.20;103026;1319;107951;-70
2021/11/17 08:41:20;;;;;;;73.30;37.40;;;;;;;0.32;71.37;99543.96;102967;1319;98584;-69
2021/11/17 08:43:54;;;;;;;75.40;39.60;;;;;;;0.47;71.46;99544.48;103024;1320;97900;-69
2021/11/17 08:46:23;;;;;;;79.70;38.60;;;;;;;0.65;71.48;99543.89;103041;1316;112219;-69
2021/11/17 08:48:56;;;;;;;76.30;39.60;;;;;;;0.84;71.67;99544.65;103110;1320;98583;-72
2021/11/17 08:51:29;;;;;;;76.90;41.00;;;;;;;1.02;71.62;99544.73;103112;1317;108339;-70
2021/11/17 08:54:01;;;;;;;79.50;40.30;;;;;;;1.17;71.68;99549.56;102891;1320;97884;-71
2021/11/17 08:56:34;;;;;;;80.40;41.10;;;;;;;1.34;71.75;99548.44;103380;1316;96154;-71
2021/11/17 08:59:04;;;;;;;75.90;39.80;;;;;;;1.50;71.54;99546.24;102960;1316;112050;-69
2021/11/17 09:01:35;;;;;;;119.80;65.70;;;;;;;1.66;71.48;99547.88;102936;1319;97892;-69
2021/11/17 09:04:06;;;;;;;65.20;36.80;;;;;;;1.82;71.56;99546.57;102954;1319;108538;-67
2021/11/17 09:06:37;;;;;;;69.50;37.20;;;;;;;1.76;70.97;99543.92;102855;1319;97886;-69
2021/11/17 09:09:07;;;;;;;63.50;36.00;;;;;;;1.74;70.85;99543.65;103046;1322;95913;-69
2021/11/17 09:11:36;;;;;;;85.50;37.30;;;;;;;1.75;71.14;99544.32;102944;1323;111213;-70
2021/11/17 09:14:07;;;;;;;79.00;36.60;;;;;;;1.84;71.14;99547.36;103055;1318;97985;-70
2021/11/17 09:16:40;;;;;;;72.40;41.50;;;;;;;1.93;71.49;99547.13;102979;1321;108019;-70
2021/11/17 09:19:11;;;;;;;70.80;39.10;;;;;;;2.08;71.71;99544.57;103069;1319;97998;-71
2021/11/17 09:21:44;;;;;;;71.40;41.60;;;;;;;2.28;71.65;99540.83;103072;1322;97884;-71
2021/11/17 09:24:16;;;;;;;75.50;39.30;;;;;;;2.46;71.42;99545.53;103045;1319;111487;-70
2021/11/17 09:26:49;;;;;;;69.10;38.50;;;;;;;2.60;71.31;99544.39;103000;1319;97896;-70
2021/11/17 09:29:22;;;;;;;70.50;41.80;;;;;;;2.79;71.55;99547.25;102965;1320;107874;-70
2021/11/17 09:31:50;;;;;;;80.00;47.00;;;;;;;2.99;71.61;99546.41;102988;1325;98050;-69
2021/11/17 09:34:19;;;;;;;86.80;47.70;;;;;;;3.11;71.56;99541.46;102779;1326;97990;-69
2021/11/17 09:36:47;;;;;;;89.30;51.60;;;;;;;3.20;71.72;99532.94;103012;1319;111606;-70
2021/11/17 09:39:18;;;;;;;86.60;50.30;;;;;;;3.28;71.58;99535.09;102922;1319;97905;-69
2021/11/17 09:41:54;;;;;;;90.20;49.30;;;;;;;3.31;71.51;99532.70;102930;1319;107345;-69
2021/11/17 09:44:30;;;;;;;108.70;57.10;;;;;;;3.40;71.47;99531.00;102988;1319;98058;-69
2021/11/17 09:47:01;;;;;;;97.80;52.90;;;;;;;3.45;71.38;99529.78;103069;1320;97911;-71
2021/11/17 09:49:53;;;;;;;98.20;55.00;;;;;;;3.50;71.27;99526.27;102991;1316;111384;-69
2021/11/17 09:52:36;;;;;;;131.10;76.30;;;;;;;3.59;71.42;99525.23;102997;1317;97817;-69
2021/11/17 09:55:28;;;;;;;98.10;55.00;;;;;;;3.70;70.99;99521.87;102932;1318;108028;-66
2021/11/17 09:58:03;;;;;;;;;;;;;;;3.78;71.23;99521.20;103027;1319;97850;-70
2021/11/17 10:00:40;;;;;;;89.40;49.70;;;;;;;3.88;71.25;99517.84;103022;1323;98037;-69
2021/11/17 10:03:34;;;;;;;93.90;50.80;;;;;;;3.98;71.12;99517.31;103063;1319;111437;-70
2021/11/17 10:14:38;;;;;;;92.40;51.30;;;;;;;4.19;71.36;99519.12;102846;1322;97974;-69
2021/11/17 10:17:34;;;;;;;86.30;49.20;;;;;;;4.40;71.34;99513.19;102949;1320;111959;-70
2021/11/17 10:20:11;;;;;;;84.50;45.60;;;;;;;4.62;71.39;99509.19;103061;1317;98488;-69
2021/11/17 10:22:50;;;;;;;78.90;44.60;;;;;;;4.66;71.08;99506.36;102990;1319;108276;-70
2021/11/17 10:25:23;;;;;;;72.10;41.60;;;;;;;4.54;70.84;99501.20;103040;1319;97895;-70
2021/11/17 10:28:02;;;;;;;75.70;44.20;;;;;;;4.55;71.12;99500.69;103061;1319;97880;-68
2021/11/17 10:30:55;;;;;;;77.50;43.70;;;;;;;4.62;71.08;99505.30;102966;1322;111530;-69
2021/11/17 10:34:05;;;;;;;73.20;42.80;;;;;;;4.71;71.09;99508.45;102879;1316;97926;-70
2021/11/17 10:36:48;;;;;;;73.00;41.00;;;;;;;4.84;71.22;99511.06;102918;1318;106602;-70
2021/11/17 10:39:19;;;;;;;73.30;41.80;;;;;;;4.93;71.17;99505.42;102907;1318;96339;-70
2021/11/17 10:41:58;;;;;;;70.20;41.30;;;;;;;4.97;71.10;99507.04;102949;1319;98029;-68
2021/11/17 10:44:43;;;;;;;68.90;40.40;;;;;;;4.94;71.05;99510.30;102875;1318;128132;-70
2021/11/17 10:47:26;;;;;;;74.00;41.90;;;;;;;4.94;71.09;99508.91;102926;1319;97889;-69
2021/11/17 10:50:04;;;;;;;66.00;40.00;;;;;;;4.94;70.93;99510.66;102965;1317;107788;-68
2021/11/17 10:52:46;;;;;;;130.50;76.20;;;;;;;4.96;71.11;99512.16;102903;1321;98000;-69
2021/11/17 10:55:41;;;;;;;72.50;42.90;;;;;;;4.99;71.04;99512.91;102960;1319;97971;-69
2021/11/17 10:58:12;;;;;;;69.30;40.20;;;;;;;5.08;71.20;99506.02;102887;1318;111513;-69
2021/11/17 11:00:44;;;;;;;67.70;42.30;;;;;;;5.14;71.11;99503.81;102981;1318;97905;-70
2021/11/17 11:03:15;;;;;;;70.70;40.80;;;;;;;5.23;71.13;99506.96;102993;1319;107842;-71
2021/11/17 11:05:47;;;;;;;66.00;40.40;;;;;;;5.30;71.17;99506.30;103021;1319;97901;-70
2021/11/17 11:08:17;;;;;;;67.60;42.20;;;;;;;5.34;70.91;99503.11;103047;1318;95318;-70
2021/11/17 11:10:58;;;;;;;71.90;44.50;;;;;;;5.33;70.93;99498.61;102937;1318;111533;-71
2021/11/17 11:13:56;;;;;;;73.30;45.60;;;;;;;5.40;71.07;99500.23;102976;1319;97055;-71
2021/11/17 11:16:42;;;;;;;80.20;48.20;;;;;;;5.50;71.20;99494.70;102958;1318;107748;-72
2021/11/17 11:19:10;;;;;;;81.10;47.00;;;;;;;5.59;71.08;99496.75;103081;1319;97765;-70
2021/11/17 11:21:58;;;;;;;77.00;45.30;;;;;;;5.67;71.28;99492.33;103024;1319;98012;-70
2021/11/17 11:24:30;;;;;;;76.70;44.40;;;;;;;5.85;71.27;99484.84;103048;1319;111535;-71
2021/11/17 11:26:58;;;;;;;71.70;42.40;;;;;;;6.01;71.29;99483.06;103044;1318;95977;-71
2021/11/17 11:29:33;;;;;;;76.30;44.10;;;;;;;6.18;71.40;99483.86;102867;1318;107969;-70
2021/11/17 11:32:06;;;;;;;69.50;40.30;;;;;;;6.28;71.28;99487.25;103011;1322;97840;-70
2021/11/17 11:34:47;;;;;;;68.00;39.40;;;;;;;6.37;71.10;99478.91;102939;1319;95244;-70
2021/11/17 11:37:21;;;;;;;64.20;40.80;;;;;;;6.45;71.24;99481.72;103058;1319;111525;-71
2021/11/17 11:40:10;;;;;;;67.80;41.70;;;;;;;6.54;71.24;99482.14;103115;1319;98869;-70
2021/11/17 11:42:56;;;;;;;65.40;41.60;;;;;;;6.66;71.11;99482.80;103050;1319;107831;-71
2021/11/17 11:45:27;;;;;;;66.10;40.30;;;;;;;6.76;70.99;99480.16;103055;1322;97885;-70
2021/11/17 11:48:00;;;;;;;67.50;41.20;;;;;;;6.85;71.05;99477.06;103079;1316;97921;-72
2021/11/17 11:50:31;;;;;;;;;;;;;;;6.94;71.20;99476.27;103058;1318;110648;-72
2021/11/17 11:53:27;;;;;;;65.60;40.60;;;;;;;6.91;70.93;99475.58;102867;1319;97950;-71
2021/11/17 11:56:21;;;;;;;128.10;74.60;;;;;;;6.92;71.19;99471.80;102938;1321;108196;-70
2021/11/17 11:58:50;;;;;;;77.30;46.60;;;;;;;6.92;71.02;99477.44;102993;1319;97931;-73
2021/11/17 12:01:25;;;;;;;70.10;42.20;;;;;;;6.85;70.87;99474.77;103048;1320;98211;-73
2021/11/17 12:04:00;;;;;;;71.20;43.10;;;;;;;6.77;70.60;99471.13;102998;1319;113660;-73
2021/11/17 12:06:49;;;;;;;75.30;45.30;;;;;;;6.70;70.78;99474.11;103023;1321;97904;-76
2021/11/17 12:09:23;;;;;;;75.80;44.50;;;;;;;6.64;70.88;99467.20;103024;1319;108312;-77
2021/11/17 12:11:59;;;;;;;79.70;44.10;;;;;;;6.63;70.73;99466.87;103000;1319;97985;-76
2021/11/17 12:14:35;;;;;;;77.70;45.40;;;;;;;6.60;70.89;99462.80;103101;1319;98314;-74
2021/11/17 12:17:08;;;;;;;75.20;43.70;;;;;;;6.54;70.87;99462.72;103011;1319;111544;-77
2021/11/17 12:19:45;;;;;;;75.60;43.60;;;;;;;6.47;71.01;99460.96;102847;1322;97984;-72
2021/11/17 12:22:18;;;;;;;77.20;43.90;;;;;;;6.42;70.96;99459.48;103053;1319;107844;-74
2021/11/17 12:25:09;;;;;;;81.20;45.10;;;;;;;6.35;70.90;99459.43;102874;1319;98008;-72
2021/11/17 12:27:37;;;;;;;79.00;46.60;;;;;;;6.25;70.92;99461.85;103001;1319;98017;-71
2021/11/17 12:30:11;;;;;;;80.80;48.20;;;;;;;6.16;70.67;99463.88;102789;1321;112477;-73
2021/11/17 12:32:54;;;;;;;85.50;48.70;;;;;;;6.10;70.70;99466.09;103079;1322;97916;-72
2021/11/17 12:35:40;;;;;;;85.00;47.10;;;;;;;6.05;70.83;99457.91;103006;1319;107846;-70
2021/11/17 12:38:24;;;;;;;93.50;51.00;;;;;;;6.00;70.83;99460.05;102999;1319;95194;-71
2021/11/17 12:41:01;;;;;;;94.10;52.20;;;;;;;5.87;70.45;99458.35;103034;1320;97902;-70
2021/11/17 12:43:45;;;;;;;95.80;52.30;;;;;;;5.79;70.83;99456.59;102920;1319;111437;-71
2021/11/17 12:46:29;;;;;;;92.80;52.60;;;;;;;5.74;70.87;99456.32;102948;1319;98120;-72
2021/11/17 12:49:27;;;;;;;90.90;51.60;;;;;;;5.69;70.85;99455.85;102834;1320;107524;-71
2021/11/17 12:52:19;;;;;;;85.90;48.90;;;;;;;5.61;70.87;99463.06;102998;1319;98738;-72
2021/11/17 12:54:55;;;;;;;79.80;46.60;;;;;;;5.53;70.81;99466.44;103058;1319;95523;-71
2021/11/17 12:57:52;;;;;;;87.00;50.80;;;;;;;5.48;70.70;99468.40;102891;1318;113045;-71
2021/11/17 13:00:20;;;;;;;97.00;53.80;;;;;;;5.43;70.78;99470.92;102978;1319;97950;-71
2021/11/17 13:02:54;;;;;;;95.60;53.10;;;;;;;5.40;70.74;99476.52;102889;1319;108834;-71
2021/11/17 13:05:32;;;;;;;96.10;53.10;;;;;;;5.34;70.75;99477.83;102902;1319;96016;-71
2021/11/17 13:08:03;;;;;;;92.90;50.40;;;;;;;5.29;70.83;99478.72;102963;1322;97873;-73
2021/11/17 13:10:49;;;;;;;95.80;51.80;;;;;;;5.24;70.81;99475.63;103031;1316;111497;-71
2021/11/17 13:13:27;;;;;;;87.80;48.70;;;;;;;5.18;70.74;99473.60;103083;1317;97892;-72
2021/11/17 13:16:20;;;;;;;85.50;45.90;;;;;;;5.13;70.94;99474.49;102970;1322;107839;-71
2021/11/17 13:18:48;;;;;;;86.50;48.60;;;;;;;5.07;70.70;99474.44;103015;1319;96787;-71
2021/11/17 13:21:21;;;;;;;84.80;47.70;;;;;;;5.00;70.92;99474.90;102880;1319;97762;-70
2021/11/17 13:23:56;;;;;;;92.00;52.80;;;;;;;4.99;70.93;99476.01;103020;1318;111439;-71
2021/11/17 13:26:31;;;;;;;;;;;;;;;5.00;71.02;99474.21;103049;1319;97835;-71
2021/11/17 13:29:32;;;;;;;107.40;53.60;;;;;;;4.99;71.17;99475.83;102934;1322;107761;-71
2021/11/17 13:32:00;;;;;;;104.00;58.40;;;;;;;4.97;70.91;99477.30;102943;1319;98974;-72
2021/11/17 13:34:38;;;;;;;123.20;61.30;;;;;;;4.93;70.85;99477.30;102984;1318;96973;-72
2021/11/17 13:37:34;;;;;;;109.40;59.10;;;;;;;4.89;70.97;99477.98;103009;1319;110907;-71
2021/11/17 13:40:06;;;;;;;99.40;53.80;;;;;;;4.88;70.94;99486.13;103088;1320;97902;-71
2021/11/17 13:42:37;;;;;;;101.50;53.70;;;;;;;4.86;71.01;99489.19;103024;1318;106541;-71
2021/11/17 13:45:12;;;;;;;110.00;57.60;;;;;;;4.87;71.06;99483.90;103041;1319;97865;-71
2021/11/17 13:47:43;;;;;;;110.60;57.30;;;;;;;4.87;71.12;99478.10;102944;1319;98567;-71
2021/11/17 13:50:13;;;;;;;95.50;49.90;;;;;;;4.87;71.09;99481.45;103016;1319;111493;-70
2021/11/17 13:52:45;;;;;;;99.70;52.50;;;;;;;4.84;71.06;99485.61;102916;1319;97989;-71
2021/11/17 13:55:21;;;;;;;95.70;50.40;;;;;;;4.82;70.92;99484.83;103021;1317;107800;-70
2021/11/17 13:57:56;;;;;;;97.20;51.40;;;;;;;4.79;71.01;99480.73;102975;1319;97913;-71
2021/11/17 14:00:26;;;;;;;98.40;55.60;;;;;;;4.76;71.05;99479.96;103015;1319;96563;-69
2021/11/17 14:02:55;;;;;;;103.50;55.90;;;;;;;4.73;71.08;99483.04;102968;1319;112960;-71
2021/11/17 22:11:45;;;;;;;127.40;77.00;;;;;;;2.57;76.17;99482.68;103137;1313;110145;-72
2021/11/17 22:14:14;;;;;;;116.20;73.40;;;;;;;2.64;76.19;99483.84;103018;1317;98118;-72
2021/11/17 22:16:44;;;;;;;127.40;77.80;;;;;;;2.72;76.22;99484.80;103009;1316;108878;-72
2021/11/17 22:19:13;;;;;;;117.30;72.10;;;;;;;2.78;76.29;99484.05;103097;1317;97889;-71
2021/11/17 22:21:41;;;;;;;129.20;75.80;;;;;;;2.85;76.36;99485.76;102857;1317;95886;-71
2021/11/17 22:24:09;;;;;;;131.80;78.70;;;;;;;2.91;76.15;99490.99;103058;1317;111604;-71
2021/11/17 22:26:37;;;;;;;124.30;75.60;;;;;;;2.96;76.07;99484.31;102903;1317;97882;-71
2021/11/17 22:29:06;;;;;;;122.90;74.40;;;;;;;3.02;76.16;99488.69;102989;1317;107955;-73
2021/11/17 22:31:35;;;;;;;116.30;71.40;;;;;;;3.07;76.31;99482.36;102986;1321;98025;-73
2021/11/17 22:34:06;;;;;;;125.70;75.80;;;;;;;3.12;76.08;99482.88;102969;1316;97977;-74
2021/11/17 22:36:34;;;;;;;127.20;75.70;;;;;;;3.17;76.35;99482.55;102953;1324;111636;-74
2021/11/17 22:39:05;;;;;;;126.20;77.50;;;;;;;3.22;76.25;99487.98;103156;1317;96004;-73
2021/11/17 22:41:32;;;;;;;127.60;78.00;;;;;;;3.26;76.08;99486.43;103125;1320;107933;-73